createdAt,value
2022-09-10T00:01:37.465Z,3.08
2022-09-10T00:04:13.196Z,3.14
2022-09-10T00:06:42.974Z,3.22
2022-09-10T00:09:11.838Z,3.27
2022-09-10T00:11:41.821Z,3.29
2022-09-10T00:14:17.921Z,3.31
2022-09-10T00:16:46.296Z,3.34
2022-09-10T00:19:17.300Z,3.33
2022-09-10T00:21:45.939Z,3.39
2022-09-10T00:24:14.470Z,3.59
2022-09-10T00:26:42.921Z,3.63
2022-09-10T00:29:13.379Z,3.73
2022-09-10T00:31:44.026Z,3.76
2022-09-10T00:34:15.468Z,3.76
2022-09-10T00:36:44.613Z,3.74
2022-09-10T00:39:15.952Z,3.83
2022-09-10T00:41:47.958Z,4.00
2022-09-10T00:44:40.457Z,4.20
2022-09-10T00:47:40.180Z,4.37
2022-09-10T00:50:24.324Z,4.63
2022-09-10T00:52:55.776Z,4.73
2022-09-10T00:55:24.805Z,4.76
2022-09-10T00:57:57.600Z,4.73
2022-09-10T01:00:25.851Z,4.73
2022-09-10T01:02:54.175Z,4.79
2022-09-10T01:05:24.284Z,5.02
2022-09-10T01:07:53.846Z,5.10
2022-09-10T01:10:30.581Z,5.13
2022-09-10T01:13:37.362Z,5.27
2022-09-10T01:16:39.145Z,5.58
2022-09-10T01:19:48.518Z,5.68
2022-09-10T01:22:30.253Z,5.79
2022-09-10T01:25:15.337Z,5.82
2022-09-10T01:27:52.133Z,5.89
2022-09-10T01:30:35.017Z,5.97
2022-09-10T01:33:14.057Z,6.03
2022-09-10T01:35:55.614Z,6.11
2022-09-10T01:38:38.158Z,6.19
2022-09-10T01:41:07.683Z,6.28
2022-09-10T01:43:36.637Z,6.39
2022-09-10T01:46:18.294Z,6.51
2022-09-10T01:49:02.293Z,6.60
2022-09-10T01:51:52.926Z,6.72
2022-09-10T01:54:41.938Z,6.84
2022-09-10T01:57:32.187Z,7.02
2022-09-10T02:00:12.846Z,7.19
2022-09-10T02:03:10.557Z,7.52
2022-09-10T02:05:41.545Z,7.71
2022-09-10T02:08:38.456Z,8.19
2022-09-10T02:11:10.840Z,8.66
2022-09-10T02:13:40.044Z,9.23
2022-09-10T02:16:13.863Z,9.56
2022-09-10T02:18:43.358Z,9.82
2022-09-10T02:21:12.912Z,10.06
2022-09-10T02:23:45.522Z,10.15
2022-09-10T02:26:15.201Z,10.15
2022-09-10T02:28:44.593Z,10.14
2022-09-10T02:31:15.173Z,10.11
2022-09-10T02:33:43.824Z,10.07
2022-09-10T02:36:11.813Z,10.09
2022-09-10T02:38:40.180Z,10.11
2022-09-10T02:41:10.543Z,10.17
2022-09-10T02:43:38.719Z,10.31
2022-09-10T02:46:11.339Z,10.32
2022-09-10T02:48:40.506Z,10.50
2022-09-10T02:51:08.511Z,10.47
2022-09-10T02:53:39.041Z,10.42
2022-09-10T02:56:08.478Z,10.37
2022-09-10T02:58:36.473Z,10.34
2022-09-10T03:01:10.883Z,10.30
2022-09-10T03:03:39.763Z,10.32
2022-09-10T03:06:08.344Z,10.28
2022-09-10T03:08:37.668Z,10.36
2022-09-10T03:11:07.720Z,10.36
2022-09-10T03:13:36.084Z,10.49
2022-09-10T03:16:05.104Z,10.72
2022-09-10T03:18:33.082Z,10.99
2022-09-10T03:21:16.708Z,11.34
2022-09-10T03:23:46.668Z,11.69
2022-09-10T03:26:16.767Z,11.96
2022-09-10T03:28:45.673Z,12.06
2022-09-10T03:31:14.639Z,12.28
2022-09-10T03:33:43.254Z,12.27
2022-09-10T03:36:14.023Z,12.12
2022-09-10T03:38:42.207Z,11.99
2022-09-10T03:41:11.200Z,11.89
2022-09-10T03:43:40.962Z,11.87
2022-09-10T03:46:09.104Z,11.72
2022-09-10T03:48:40.026Z,11.83
2022-09-10T03:51:09.049Z,11.80
2022-09-10T03:53:37.049Z,11.76
2022-09-10T03:56:23.957Z,11.67
2022-09-10T03:58:52.613Z,11.76
2022-09-10T04:01:20.973Z,11.79
2022-09-10T04:03:51.050Z,11.72
2022-09-10T04:06:19.098Z,11.61
2022-09-10T04:08:50.714Z,11.83
2022-09-10T04:11:20.082Z,12.09
2022-09-10T04:13:49.890Z,12.32
2022-09-10T04:16:17.766Z,12.43
2022-09-10T04:18:45.886Z,12.34
2022-09-10T04:21:13.879Z,12.27
2022-09-10T04:23:41.894Z,12.21
2022-09-10T04:26:15.498Z,12.23
2022-09-10T04:28:43.556Z,12.33
2022-09-10T04:31:12.409Z,12.32
2022-09-10T04:33:40.651Z,12.28
2022-09-10T04:36:09.029Z,12.27
2022-09-10T04:38:40.861Z,12.23
2022-09-10T04:41:15.081Z,12.17
2022-09-10T04:43:43.076Z,12.12
2022-09-10T04:46:11.166Z,12.14
2022-09-10T04:48:39.809Z,12.20
2022-09-10T04:51:17.568Z,12.34
2022-09-10T04:53:46.539Z,12.78
2022-09-10T04:56:15.115Z,13.20
2022-09-10T04:58:44.589Z,13.69
2022-09-10T05:01:13.618Z,14.07
2022-09-10T05:03:41.691Z,14.12
2022-09-10T05:06:09.796Z,14.14
2022-09-10T05:08:38.035Z,14.19
2022-09-10T05:11:06.216Z,14.23
2022-09-10T05:13:34.180Z,14.16
2022-09-10T05:16:02.591Z,14.25
2022-09-10T05:18:31.463Z,14.34
2022-09-10T05:20:59.495Z,14.48
2022-09-10T05:23:28.115Z,14.63
2022-09-10T05:25:57.555Z,14.63
2022-09-10T05:28:25.775Z,14.62
2022-09-10T05:30:54.769Z,14.77
2022-09-10T05:33:22.770Z,14.92
2022-09-10T05:35:53.541Z,14.91
2022-09-10T05:38:21.669Z,14.85
2022-09-10T05:40:49.557Z,14.73
2022-09-10T05:43:17.566Z,14.64
2022-09-10T05:45:45.867Z,14.60
2022-09-10T05:48:13.927Z,14.72
2022-09-10T05:50:41.954Z,14.92
2022-09-10T05:53:12.615Z,14.99
2022-09-10T05:55:40.618Z,15.20
2022-09-10T05:58:08.627Z,15.38
2022-09-10T06:00:37.293Z,15.47
2022-09-10T06:03:06.038Z,15.14
2022-09-10T06:05:34.014Z,15.48
2022-09-10T06:08:06.643Z,15.54
2022-09-10T06:10:36.563Z,15.65
2022-09-10T06:13:04.583Z,15.67
2022-09-10T06:15:33.837Z,15.61
2022-09-10T06:18:05.087Z,15.41
2022-09-10T06:20:34.721Z,15.12
2022-09-10T06:23:02.792Z,15.28
2022-09-10T06:25:31.983Z,15.22
2022-09-10T06:27:59.956Z,15.36
2022-09-10T06:30:28.364Z,15.54
2022-09-10T06:32:57.135Z,15.69
2022-09-10T06:35:26.024Z,15.75
2022-09-10T06:37:55.580Z,15.78
2022-09-10T06:40:23.681Z,15.79
2022-09-10T06:42:51.571Z,15.77
2022-09-10T06:45:20.162Z,15.79
2022-09-10T06:50:38.097Z,15.96
2022-09-10T06:53:05.768Z,16.08
2022-09-10T06:55:36.214Z,16.08
2022-09-10T06:58:09.258Z,16.02
2022-09-10T07:00:39.840Z,15.94
2022-09-10T07:03:07.854Z,15.94
2022-09-10T07:05:36.163Z,15.97
2022-09-10T07:08:04.206Z,15.95
2022-09-10T07:10:32.776Z,15.89
2022-09-10T07:13:04.588Z,15.90
2022-09-10T07:15:33.632Z,15.87
2022-09-10T07:18:01.992Z,15.89
2022-09-10T07:20:34.260Z,15.92
2022-09-10T07:23:02.424Z,15.90
2022-09-10T07:25:30.472Z,15.99
2022-09-10T07:28:01.116Z,16.06
2022-09-10T07:30:31.851Z,16.04
2022-09-10T07:32:59.825Z,16.19
2022-09-10T07:35:29.626Z,16.30
2022-09-10T07:37:57.623Z,16.38
2022-09-10T07:40:25.648Z,16.40
2022-09-10T07:42:54.954Z,16.53
2022-09-10T07:45:23.449Z,16.67
2022-09-10T07:47:51.345Z,16.76
2022-09-10T07:50:20.216Z,16.71
2022-09-10T07:52:48.391Z,16.65
2022-09-10T07:55:16.560Z,16.57
2022-09-10T07:57:46.417Z,16.51
2022-09-10T08:00:17.446Z,16.45
2022-09-10T08:02:45.736Z,16.43
2022-09-10T08:05:14.670Z,16.43
2022-09-10T08:07:42.925Z,16.40
2022-09-10T08:10:11.656Z,16.40
2022-09-10T08:12:41.494Z,16.40
2022-09-10T08:15:11.444Z,16.42
2022-09-10T08:17:39.137Z,16.50
2022-09-10T08:20:11.126Z,16.61
2022-09-10T08:22:39.068Z,16.73
2022-09-10T08:25:07.863Z,16.80
2022-09-10T08:27:37.071Z,16.89
2022-09-10T08:30:06.528Z,16.88
2022-09-10T08:32:36.559Z,16.85
2022-09-10T08:35:06.480Z,16.81
2022-09-10T08:37:34.826Z,16.77
2022-09-10T08:40:03.893Z,16.70
2022-09-10T08:42:53.886Z,16.64
2022-09-10T08:45:29.026Z,16.59
2022-09-10T08:48:04.222Z,16.51
2022-09-10T08:51:10.488Z,16.43
2022-09-10T08:54:18.085Z,16.37
2022-09-10T08:56:48.532Z,16.36
2022-09-10T08:59:24.057Z,16.12
2022-09-10T09:01:59.918Z,16.34
2022-09-10T09:04:37.170Z,16.39
2022-09-10T09:07:13.508Z,16.43
2022-09-10T09:09:44.477Z,16.51
2022-09-10T09:12:45.922Z,16.54
2022-09-10T09:15:24.934Z,16.50
2022-09-10T09:18:28.939Z,16.39
2022-09-10T09:21:05.397Z,16.31
2022-09-10T09:24:13.796Z,16.23
2022-09-10T09:26:47.985Z,16.20
2022-09-10T09:29:25.468Z,16.20
2022-09-10T09:32:00.829Z,16.19
2022-09-10T09:34:51.015Z,16.19
2022-09-10T09:37:35.331Z,15.98
2022-09-10T09:40:08.776Z,16.21
2022-09-10T09:43:00.021Z,16.25
2022-09-10T09:45:39.810Z,16.25
2022-09-10T09:48:17.418Z,16.24
2022-09-10T09:50:50.027Z,16.20
2022-09-10T09:53:28.082Z,16.14
2022-09-10T09:56:01.852Z,16.09
2022-09-10T09:58:36.974Z,16.05
2022-09-10T10:01:05.198Z,16.03
2022-09-10T10:03:36.256Z,16.02
2022-09-10T10:06:13.088Z,16.15
2022-09-10T10:08:46.020Z,16.32
2022-09-10T10:11:18.916Z,16.37
2022-09-10T10:13:50.779Z,16.42
2022-09-10T10:16:34.380Z,16.41
2022-09-10T10:19:02.867Z,16.39
2022-09-10T10:21:33.306Z,16.31
2022-09-10T10:24:04.855Z,16.24
2022-09-10T10:26:35.596Z,16.25
2022-09-10T10:29:19.481Z,16.19
2022-09-10T10:31:52.760Z,16.14
2022-09-10T10:34:55.466Z,16.10
2022-09-10T10:37:33.434Z,16.06
2022-09-10T10:40:44.271Z,16.04
2022-09-10T10:43:44.138Z,15.80
2022-09-10T10:46:28.756Z,15.99
2022-09-10T10:49:28.944Z,15.90
2022-09-10T10:52:14.865Z,15.82
2022-09-10T10:54:48.948Z,15.73
2022-09-10T10:57:20.611Z,15.66
2022-09-10T11:00:09.774Z,15.55
2022-09-10T11:03:10.855Z,15.50
2022-09-10T11:05:49.086Z,15.40
2022-09-10T11:08:35.647Z,15.38
2022-09-10T11:11:22.704Z,15.40
2022-09-10T11:14:28.962Z,15.34
2022-09-10T11:17:06.677Z,15.27
2022-09-10T11:20:27.301Z,15.08
2022-09-10T11:23:12.334Z,15.06
2022-09-10T11:25:51.725Z,14.99
2022-09-10T11:28:26.785Z,14.95
2022-09-10T11:31:10.424Z,14.64
2022-09-10T11:33:51.010Z,14.84
2022-09-10T11:36:33.054Z,14.60
2022-09-10T11:39:14.338Z,14.75
2022-09-10T11:41:44.844Z,14.68
2022-09-10T11:44:38.484Z,14.62
2022-09-10T11:47:18.868Z,14.57
2022-09-10T11:49:59.148Z,14.51
2022-09-10T11:52:30.863Z,14.45
2022-09-10T11:54:59.551Z,14.40
2022-09-10T11:58:04.851Z,14.41
2022-09-10T12:00:40.601Z,14.39
2022-09-10T12:03:24.571Z,14.38
2022-09-10T12:06:04.884Z,14.36
2022-09-10T12:09:02.008Z,14.37
2022-09-10T12:11:41.021Z,14.28
2022-09-10T12:14:17.033Z,13.95
2022-09-10T12:17:18.174Z,14.02
2022-09-10T12:19:51.559Z,13.83
2022-09-10T12:22:36.295Z,13.67
2022-09-10T12:25:07.276Z,13.47
2022-09-10T12:27:51.110Z,13.43
2022-09-10T12:30:37.349Z,13.43
2022-09-10T12:33:19.151Z,13.37
2022-09-10T12:35:52.322Z,13.32
2022-09-10T12:38:57.521Z,13.28
2022-09-10T12:41:28.007Z,13.26
2022-09-10T12:43:59.181Z,13.20
2022-09-10T12:46:28.682Z,13.16
2022-09-10T12:48:56.973Z,13.13
2022-09-10T12:51:44.177Z,13.08
2022-09-10T12:54:49.610Z,13.05
2022-09-10T12:57:17.590Z,13.02
2022-09-10T13:00:13.237Z,13.00
2022-09-10T13:02:50.709Z,12.82
2022-09-10T13:05:28.619Z,13.01
2022-09-10T13:08:16.679Z,12.99
2022-09-10T13:11:07.488Z,13.00
2022-09-10T13:13:53.163Z,13.00
2022-09-10T13:16:27.517Z,13.01
2022-09-10T13:19:18.195Z,12.98
2022-09-10T13:27:39.023Z,12.86
2022-09-10T13:30:19.345Z,12.80
2022-09-10T13:32:58.646Z,12.76
2022-09-10T13:35:55.796Z,12.69
2022-09-10T13:39:11.390Z,12.53
2022-09-10T13:41:48.112Z,12.60
2022-09-10T13:44:39.060Z,12.58
2022-09-10T13:47:20.108Z,12.52
2022-09-10T13:50:29.521Z,12.55
2022-09-10T13:53:01.380Z,12.55
2022-09-10T13:55:32.991Z,12.51
2022-09-10T13:58:19.632Z,12.43
2022-09-10T14:01:06.926Z,12.36
2022-09-10T14:03:37.434Z,12.32
2022-09-10T14:06:16.645Z,12.30
2022-09-10T14:08:53.255Z,12.31
2022-09-10T14:11:29.329Z,12.32
2022-09-10T14:14:13.575Z,12.21
2022-09-10T14:16:48.029Z,12.19
2022-09-10T14:19:24.603Z,12.16
2022-09-10T14:21:55.331Z,12.12
2022-09-10T14:24:36.786Z,12.05
2022-09-10T14:27:23.315Z,11.96
2022-09-10T14:29:53.094Z,11.89
2022-09-10T14:32:26.848Z,11.86
2022-09-10T14:35:40.249Z,11.76
2022-09-10T14:38:28.198Z,11.56
2022-09-10T14:41:05.462Z,11.52
2022-09-10T14:43:39.835Z,11.54
2022-09-10T14:46:10.847Z,11.49
2022-09-10T14:49:02.114Z,11.56
2022-09-10T14:51:31.403Z,11.56
2022-09-10T14:54:00.291Z,11.51
2022-09-10T14:56:34.325Z,11.53
2022-09-10T14:59:17.616Z,11.50
2022-09-10T15:01:49.215Z,11.46
2022-09-10T15:04:35.340Z,11.40
2022-09-10T15:07:04.421Z,11.36
2022-09-10T15:09:32.406Z,11.31
2022-09-10T15:12:30.086Z,11.20
2022-09-10T15:14:59.029Z,11.16
2022-09-10T15:17:27.613Z,11.18
2022-09-10T15:19:56.897Z,11.19
2022-09-10T15:25:34.935Z,11.13
2022-09-10T15:28:06.034Z,11.10
2022-09-10T15:30:37.655Z,11.04
2022-09-10T15:33:07.313Z,10.99
2022-09-10T15:35:35.236Z,10.92
2022-09-10T15:38:04.347Z,10.82
2022-09-10T15:40:32.370Z,10.84
2022-09-10T15:43:00.355Z,10.78
2022-09-10T15:45:29.390Z,10.64
2022-09-10T15:47:57.428Z,10.65
2022-09-10T15:50:25.744Z,10.50
2022-09-10T15:52:54.073Z,10.49
2022-09-10T15:55:22.423Z,10.34
2022-09-10T15:57:51.831Z,10.31
2022-09-10T16:00:20.769Z,10.34
2022-09-10T16:02:54.495Z,10.31
2022-09-10T16:05:22.528Z,10.37
2022-09-10T16:07:50.826Z,10.37
2022-09-10T16:10:19.012Z,10.39
2022-09-10T16:12:46.990Z,10.36
2022-09-10T16:15:15.514Z,10.27
2022-09-10T16:17:43.487Z,10.24
2022-09-10T16:20:11.712Z,10.23
2022-09-10T16:22:40.602Z,10.25
2022-09-10T16:25:10.837Z,10.26
2022-09-10T16:27:43.058Z,10.20
2022-09-10T16:30:14.233Z,10.17
2022-09-10T16:32:42.174Z,10.16
2022-09-10T16:35:10.336Z,9.97
2022-09-10T16:37:38.680Z,9.95
2022-09-10T16:40:07.840Z,9.97
2022-09-10T16:42:35.804Z,9.94
2022-09-10T16:45:04.829Z,9.96
2022-09-10T16:47:34.180Z,9.95
2022-09-10T16:50:02.197Z,9.95
2022-09-10T16:52:34.909Z,9.94
2022-09-10T16:55:05.400Z,9.94
2022-09-10T16:57:33.912Z,9.88
2022-09-10T17:00:02.049Z,9.86
2022-09-10T17:02:31.584Z,9.90
2022-09-10T17:04:59.585Z,9.88
2022-09-10T17:07:28.633Z,9.88
2022-09-10T17:10:00.554Z,9.82
2022-09-10T17:12:28.984Z,9.76
2022-09-10T17:14:58.694Z,9.67
2022-09-10T17:17:26.835Z,9.45
2022-09-10T17:19:54.831Z,9.38
2022-09-10T17:22:23.635Z,9.26
2022-09-10T17:24:51.811Z,9.32
2022-09-10T17:27:25.295Z,9.35
2022-09-10T17:29:54.639Z,9.38
2022-09-10T17:32:22.667Z,9.36
2022-09-10T17:34:52.272Z,9.30
2022-09-10T17:37:21.445Z,9.23
2022-09-10T17:39:49.580Z,9.17
2022-09-10T17:42:18.114Z,9.33
2022-09-10T17:44:46.205Z,9.30
2022-09-10T17:47:14.641Z,9.34
2022-09-10T17:49:43.790Z,9.36
2022-09-10T17:52:15.073Z,9.37
2022-09-10T17:54:43.442Z,9.38
2022-09-10T17:57:11.432Z,9.27
2022-09-10T17:59:40.143Z,9.30
2022-09-10T18:02:08.169Z,9.22
2022-09-10T18:04:36.193Z,9.15
2022-09-10T18:07:05.189Z,8.94
2022-09-10T18:09:51.761Z,8.94
2022-09-10T18:12:20.091Z,9.03
2022-09-10T18:14:47.993Z,9.05
2022-09-10T18:17:16.042Z,9.02
2022-09-10T18:19:47.661Z,8.88
2022-09-10T18:22:15.695Z,8.95
2022-09-10T18:24:43.916Z,8.96
2022-09-10T18:27:12.939Z,8.97
2022-09-10T18:29:42.873Z,8.96
2022-09-10T18:32:10.565Z,8.97
2022-09-10T18:34:42.150Z,8.99
2022-09-10T18:37:10.462Z,8.99
2022-09-10T18:39:38.615Z,8.99
2022-09-10T18:42:08.074Z,8.99
2022-09-10T18:44:37.895Z,9.00
2022-09-10T18:47:28.020Z,9.03
2022-09-10T18:49:59.886Z,9.04
2022-09-10T18:52:27.895Z,8.99
2022-09-10T18:54:55.972Z,8.99
2022-09-10T18:57:25.407Z,8.94
2022-09-10T18:59:55.667Z,8.91
2022-09-10T19:02:24.524Z,8.95
2022-09-10T19:05:11.600Z,8.95
2022-09-10T19:07:40.282Z,8.99
2022-09-10T19:10:09.630Z,9.03
2022-09-10T19:12:38.295Z,9.04
2022-09-10T19:15:06.682Z,9.04
2022-09-10T19:17:37.154Z,9.07
2022-09-10T19:20:06.882Z,9.02
2022-09-10T19:22:34.823Z,9.11
2022-09-10T19:25:04.435Z,8.99
2022-09-10T19:27:35.611Z,9.04
2022-09-10T19:30:04.300Z,9.03
2022-09-10T19:32:34.067Z,9.01
2022-09-10T19:35:02.184Z,8.97
2022-09-10T19:37:32.239Z,8.96
2022-09-10T19:40:02.137Z,8.91
2022-09-10T19:42:31.662Z,8.97
2022-09-10T19:44:59.638Z,8.96
2022-09-10T19:47:28.508Z,8.95
2022-09-10T19:49:56.512Z,8.88
2022-09-10T19:52:26.131Z,8.88
2022-09-10T19:54:54.450Z,8.79
2022-09-10T19:57:23.313Z,8.82
2022-09-10T19:59:51.384Z,8.80
2022-09-10T20:02:21.088Z,8.76
2022-09-10T20:04:49.158Z,8.73
2022-09-10T20:07:17.136Z,8.70
2022-09-10T20:09:45.482Z,8.68
2022-09-10T20:12:13.540Z,8.67
2022-09-10T20:14:41.460Z,8.64
2022-09-10T20:17:09.563Z,8.57
2022-09-10T20:19:37.508Z,8.54
2022-09-10T20:22:06.545Z,8.50
2022-09-10T20:24:34.874Z,8.48
2022-09-10T20:27:02.925Z,8.47
2022-09-10T20:29:33.593Z,8.44
2022-09-10T20:32:01.707Z,8.42
2022-09-10T20:34:29.779Z,8.38
2022-09-10T20:36:57.777Z,8.34
2022-09-10T20:39:26.005Z,8.28
2022-09-10T20:41:54.289Z,8.22
2022-09-10T20:44:23.529Z,8.16
2022-09-10T20:46:52.437Z,8.01
2022-09-10T20:49:21.396Z,8.01
2022-09-10T20:51:49.421Z,7.83
2022-09-10T20:54:20.960Z,7.85
2022-09-10T20:56:49.282Z,7.83
2022-09-10T20:59:18.537Z,7.78
2022-09-10T21:01:47.827Z,7.79
2022-09-10T21:04:16.060Z,7.76
2022-09-10T21:06:44.296Z,7.71
2022-09-10T21:09:52.779Z,7.59
2022-09-10T21:12:20.806Z,7.59
2022-09-10T21:14:48.744Z,7.53
2022-09-10T21:17:17.165Z,7.45
2022-09-10T21:19:47.017Z,7.41
2022-09-10T21:22:15.241Z,7.32
2022-09-10T21:24:44.390Z,7.17
2022-09-10T21:27:12.380Z,7.16
2022-09-10T21:29:40.430Z,7.05
2022-09-10T21:32:10.096Z,7.00
2022-09-10T21:34:38.039Z,6.95
2022-09-10T21:37:06.020Z,6.91
2022-09-10T21:39:34.346Z,6.72
2022-09-10T21:42:04.917Z,6.54
2022-09-10T21:44:32.919Z,6.31
2022-09-10T21:47:03.142Z,6.17
2022-09-10T21:49:31.144Z,6.25
2022-09-10T21:51:59.186Z,6.33
2022-09-10T21:54:29.524Z,6.30
2022-09-10T21:56:57.540Z,6.36
2022-09-10T21:59:27.552Z,6.32
2022-09-10T22:01:55.744Z,6.30
2022-09-10T22:04:23.813Z,6.27
2022-09-10T22:06:52.561Z,6.15
2022-09-10T22:09:22.168Z,6.22
2022-09-10T22:11:52.435Z,6.17
2022-09-10T22:14:24.389Z,6.12
2022-09-10T22:16:53.610Z,6.06
2022-09-10T22:19:25.641Z,6.09
2022-09-10T22:21:58.467Z,5.99
2022-09-10T22:24:28.347Z,6.00
2022-09-10T22:26:56.357Z,6.09
2022-09-10T22:29:27.209Z,6.06
2022-09-10T22:31:55.296Z,6.02
2022-09-10T22:34:23.714Z,6.04
2022-09-10T22:36:51.854Z,5.95
2022-09-10T22:39:21.963Z,6.01
2022-09-10T22:41:51.152Z,6.00
2022-09-10T22:44:20.777Z,5.94
2022-09-10T22:46:49.113Z,5.91
2022-09-10T22:49:17.334Z,5.88
2022-09-10T22:51:45.641Z,5.85
2022-09-10T22:54:13.920Z,5.80
2022-09-10T22:56:42.675Z,5.77
2022-09-10T22:59:14.712Z,5.71
2022-09-10T23:01:48.539Z,5.64
2022-09-10T23:04:16.916Z,5.57
2022-09-10T23:06:46.200Z,5.49
2022-09-10T23:09:16.703Z,5.38
2022-09-10T23:11:45.795Z,5.35
2022-09-10T23:14:22.871Z,5.34
2022-09-10T23:16:52.588Z,5.30
2022-09-10T23:19:24.034Z,5.24
2022-09-10T23:21:55.123Z,5.18
2022-09-10T23:24:25.479Z,5.19
2022-09-10T23:26:54.891Z,5.07
2022-09-10T23:29:23.989Z,5.11
2022-09-10T23:31:56.182Z,5.03
2022-09-10T23:34:24.419Z,5.01
2022-09-10T23:37:10.863Z,4.98
2022-09-10T23:39:40.326Z,4.98
2022-09-10T23:42:09.079Z,4.95
2022-09-10T23:44:37.332Z,4.90
2022-09-10T23:47:05.583Z,4.89
2022-09-10T23:49:33.524Z,4.83
2022-09-10T23:52:01.483Z,4.79
2022-09-10T23:54:30.670Z,4.74
2022-09-10T23:56:58.928Z,4.69
2022-09-10T23:59:26.888Z,4.66
